createdAt,value
2022-10-06T00:01:11.390Z,12.66
2022-10-06T00:03:39.304Z,12.65
2022-10-06T00:06:07.803Z,12.64
2022-10-06T00:08:36.484Z,12.62
2022-10-06T00:11:04.243Z,12.51
2022-10-06T00:13:32.295Z,12.54
2022-10-06T00:15:59.627Z,12.52
2022-10-06T00:18:28.371Z,12.44
2022-10-06T00:21:00.740Z,12.42
2022-10-06T00:23:29.128Z,12.43
2022-10-06T00:25:56.525Z,12.39
2022-10-06T00:28:23.581Z,12.42
2022-10-06T00:30:50.684Z,12.38
2022-10-06T00:33:18.127Z,12.34
2022-10-06T00:35:46.682Z,12.35
2022-10-06T00:38:15.536Z,12.33
2022-10-06T00:40:49.833Z,12.26
2022-10-06T00:43:38.698Z,12.22
2022-10-06T00:46:08.073Z,12.22
2022-10-06T00:48:35.725Z,12.23
2022-10-06T00:51:03.129Z,12.21
2022-10-06T00:53:31.091Z,12.19
2022-10-06T00:55:58.083Z,12.16
2022-10-06T00:58:25.464Z,12.14
2022-10-06T01:00:54.511Z,12.14
2022-10-06T01:03:27.828Z,12.12
2022-10-06T01:05:56.671Z,12.08
2022-10-06T01:08:24.048Z,12.08
2022-10-06T01:10:51.059Z,12.10
2022-10-06T01:13:18.856Z,12.16
2022-10-06T01:16:16.088Z,12.14
2022-10-06T01:18:46.175Z,12.14
2022-10-06T01:21:34.276Z,12.14
2022-10-06T01:24:03.439Z,12.17
2022-10-06T01:26:34.136Z,12.16
2022-10-06T01:29:01.396Z,12.23
2022-10-06T01:31:29.453Z,12.27
2022-10-06T01:33:56.725Z,12.34
2022-10-06T01:36:23.984Z,12.41
2022-10-06T01:38:51.944Z,12.47
2022-10-06T01:41:19.000Z,12.53
2022-10-06T01:43:46.780Z,12.61
2022-10-06T01:46:13.926Z,12.67
2022-10-06T01:48:41.336Z,12.72
2022-10-06T01:51:13.750Z,12.79
2022-10-06T01:53:41.666Z,12.83
2022-10-06T01:56:09.953Z,12.87
2022-10-06T01:58:37.198Z,12.90
2022-10-06T02:01:09.612Z,12.95
2022-10-06T02:03:38.531Z,13.04
2022-10-06T02:06:06.885Z,13.07
2022-10-06T02:08:35.315Z,13.08
2022-10-06T02:11:09.671Z,13.11
2022-10-06T02:13:41.564Z,13.17
2022-10-06T02:16:09.359Z,13.20
2022-10-06T02:18:36.611Z,13.22
2022-10-06T02:21:04.685Z,13.28
2022-10-06T02:23:32.439Z,13.26
2022-10-06T02:26:01.174Z,13.33
2022-10-06T02:28:30.071Z,13.39
2022-10-06T02:31:07.645Z,13.45
2022-10-06T02:33:36.791Z,13.85
2022-10-06T02:36:06.112Z,13.90
2022-10-06T02:38:33.878Z,14.04
2022-10-06T02:41:02.103Z,14.10
2022-10-06T02:43:30.596Z,14.14
2022-10-06T02:46:05.583Z,14.18
2022-10-06T02:48:33.770Z,14.23
2022-10-06T02:51:04.024Z,14.29
2022-10-06T02:53:31.036Z,14.31
2022-10-06T02:55:59.329Z,14.35
2022-10-06T02:58:28.151Z,14.38
2022-10-06T03:01:22.089Z,14.35
2022-10-06T03:03:51.508Z,14.38
2022-10-06T03:06:24.006Z,14.42
2022-10-06T03:09:13.771Z,14.42
2022-10-06T03:11:43.366Z,14.36
2022-10-06T03:14:17.871Z,14.35
2022-10-06T03:16:48.180Z,14.30
2022-10-06T03:19:21.041Z,14.30
2022-10-06T03:21:48.680Z,14.22
2022-10-06T03:24:17.033Z,14.16
2022-10-06T03:26:47.885Z,14.22
2022-10-06T03:29:16.282Z,14.16
2022-10-06T03:31:47.658Z,14.20
2022-10-06T03:34:14.970Z,14.20
2022-10-06T03:36:43.214Z,14.21
2022-10-06T03:39:10.270Z,14.19
2022-10-06T03:41:38.916Z,14.20
2022-10-06T03:44:07.496Z,14.16
2022-10-06T03:46:37.175Z,14.17
2022-10-06T03:49:07.149Z,14.15
2022-10-06T03:51:39.741Z,14.11
2022-10-06T03:54:10.315Z,14.06
2022-10-06T03:56:40.415Z,14.01
2022-10-06T03:59:14.172Z,13.95
2022-10-06T04:01:46.006Z,13.99
2022-10-06T04:04:16.953Z,13.94
2022-10-06T04:06:47.000Z,13.87
2022-10-06T04:09:17.520Z,13.85
2022-10-06T04:11:45.376Z,13.85
2022-10-06T04:14:15.305Z,13.82
2022-10-06T04:16:45.249Z,13.79
2022-10-06T04:19:15.156Z,13.75
2022-10-06T04:21:54.320Z,13.71
2022-10-06T04:24:23.911Z,13.67
2022-10-06T04:26:52.183Z,13.65
2022-10-06T04:29:19.940Z,13.57
2022-10-06T04:31:51.653Z,13.56
2022-10-06T04:34:24.623Z,13.57
2022-10-06T04:36:51.885Z,13.57
2022-10-06T04:39:19.270Z,13.51
2022-10-06T04:41:47.523Z,13.47
2022-10-06T04:44:32.756Z,13.45
2022-10-06T04:47:01.830Z,13.38
2022-10-06T04:49:28.931Z,13.43
2022-10-06T04:51:56.825Z,13.43
2022-10-06T04:54:24.396Z,13.42
2022-10-06T04:57:02.308Z,13.44
2022-10-06T04:59:30.716Z,13.39
2022-10-06T05:01:58.024Z,13.38
2022-10-06T05:04:25.114Z,13.37
2022-10-06T05:06:52.165Z,13.31
2022-10-06T05:09:19.269Z,13.28
2022-10-06T05:11:53.251Z,13.23
2022-10-06T05:14:21.702Z,13.17
2022-10-06T05:16:49.982Z,13.13
2022-10-06T05:19:17.149Z,13.05
2022-10-06T05:21:47.470Z,12.99
2022-10-06T05:24:18.471Z,12.98
2022-10-06T05:26:45.487Z,12.94
2022-10-06T05:29:15.003Z,12.87
2022-10-06T05:31:42.701Z,12.83
2022-10-06T05:34:09.737Z,12.80
2022-10-06T05:36:39.081Z,12.71
2022-10-06T05:39:07.536Z,12.70
2022-10-06T05:41:40.005Z,12.63
2022-10-06T05:44:09.492Z,12.59
2022-10-06T05:46:39.162Z,12.51
2022-10-06T05:49:08.099Z,12.39
2022-10-06T05:51:37.312Z,12.28
2022-10-06T05:54:08.925Z,12.08
2022-10-06T05:56:37.750Z,12.12
2022-10-06T05:59:05.455Z,12.08
2022-10-06T06:01:38.332Z,12.01
2022-10-06T06:04:11.929Z,12.13
2022-10-06T06:06:47.463Z,12.18
2022-10-06T06:09:19.790Z,12.26
2022-10-06T06:11:51.264Z,12.37
2022-10-06T06:14:21.911Z,12.48
2022-10-06T06:16:48.988Z,12.66
2022-10-06T06:19:16.036Z,12.71
2022-10-06T06:21:45.289Z,12.80
2022-10-06T06:24:13.511Z,12.91
2022-10-06T06:26:41.092Z,12.97
2022-10-06T06:29:08.058Z,13.01
2022-10-06T06:31:43.203Z,13.11
2022-10-06T06:34:10.748Z,13.15
2022-10-06T06:36:39.583Z,13.28
2022-10-06T06:39:15.958Z,13.34
2022-10-06T06:41:45.288Z,13.39
2022-10-06T06:44:38.127Z,13.56
2022-10-06T06:47:11.664Z,13.62
2022-10-06T06:49:38.858Z,13.69
2022-10-06T06:52:08.579Z,13.73
2022-10-06T06:54:38.088Z,13.83
2022-10-06T06:57:09.775Z,13.80
2022-10-06T06:59:36.916Z,14.01
2022-10-06T07:02:04.680Z,14.00
2022-10-06T07:04:35.209Z,14.16
2022-10-06T07:07:02.485Z,14.23
2022-10-06T07:09:32.582Z,14.34
2022-10-06T07:12:05.494Z,14.37
2022-10-06T07:14:33.011Z,14.42
2022-10-06T07:17:01.256Z,14.50
2022-10-06T07:19:29.010Z,14.54
2022-10-06T07:21:57.327Z,14.62
2022-10-06T07:24:25.142Z,14.67
2022-10-06T07:26:52.236Z,14.77
2022-10-06T07:29:19.218Z,14.56
2022-10-06T07:31:46.223Z,14.54
2022-10-06T07:34:13.572Z,14.67
2022-10-06T07:36:40.851Z,14.86
2022-10-06T07:39:08.161Z,14.95
2022-10-06T07:41:35.153Z,14.94
2022-10-06T07:44:07.733Z,14.61
2022-10-06T07:46:35.122Z,14.69
2022-10-06T07:49:14.900Z,14.68
2022-10-06T07:51:41.914Z,14.91
2022-10-06T07:54:09.197Z,15.11
2022-10-06T07:56:55.662Z,15.18
2022-10-06T07:59:22.651Z,14.97
2022-10-06T08:01:49.709Z,15.41
2022-10-06T08:04:16.757Z,15.13
2022-10-06T08:06:43.745Z,15.30
2022-10-06T08:09:10.768Z,15.46
2022-10-06T08:11:37.719Z,15.77
2022-10-06T08:14:04.682Z,15.11
2022-10-06T08:16:31.707Z,15.39
2022-10-06T08:18:59.615Z,15.30
2022-10-06T08:21:29.278Z,15.55
2022-10-06T08:23:58.000Z,15.34
2022-10-06T08:26:26.991Z,15.39
2022-10-06T08:28:55.401Z,15.68
2022-10-06T08:31:23.356Z,15.81
2022-10-06T08:33:54.631Z,15.78
2022-10-06T08:36:30.599Z,15.70
2022-10-06T08:38:58.810Z,15.95
2022-10-06T08:41:39.702Z,16.21
2022-10-06T08:44:12.555Z,15.92
2022-10-06T08:46:47.745Z,16.03
2022-10-06T08:49:23.222Z,15.90
2022-10-06T08:52:02.141Z,15.84
2022-10-06T08:54:37.274Z,15.66
2022-10-06T08:57:12.996Z,15.77
2022-10-06T08:59:44.912Z,15.89
2022-10-06T09:02:29.758Z,16.12
2022-10-06T09:05:01.042Z,16.19
2022-10-06T09:07:39.059Z,16.19
2022-10-06T09:10:41.993Z,16.24
2022-10-06T09:13:21.696Z,16.23
2022-10-06T09:15:57.043Z,16.31
2022-10-06T09:18:56.184Z,16.34
2022-10-06T09:21:27.873Z,16.24
2022-10-06T09:24:01.124Z,16.28
2022-10-06T09:26:31.593Z,16.34
2022-10-06T09:28:59.239Z,16.07
2022-10-06T09:31:27.957Z,16.06
2022-10-06T09:33:59.250Z,16.21
2022-10-06T09:36:26.384Z,15.93
2022-10-06T09:38:54.829Z,16.10
2022-10-06T09:41:34.166Z,16.02
2022-10-06T09:44:06.424Z,15.89
2022-10-06T09:46:36.163Z,16.17
2022-10-06T09:49:18.426Z,16.18
2022-10-06T09:52:11.932Z,16.13
2022-10-06T09:54:39.263Z,16.14
2022-10-06T09:57:16.199Z,16.30
2022-10-06T09:59:45.756Z,16.33
2022-10-06T10:02:35.253Z,16.32
2022-10-06T10:05:05.544Z,16.37
2022-10-06T10:07:35.062Z,16.46
2022-10-06T10:10:31.222Z,16.29
2022-10-06T10:12:59.950Z,16.45
2022-10-06T10:15:30.102Z,16.16
2022-10-06T10:18:00.395Z,16.26
2022-10-06T10:20:58.900Z,16.55
2022-10-06T10:23:32.312Z,16.63
2022-10-06T10:26:13.596Z,16.27
2022-10-06T10:29:05.304Z,16.58
2022-10-06T10:31:56.431Z,16.80
2022-10-06T10:34:51.444Z,16.72
2022-10-06T10:37:31.119Z,16.45
2022-10-06T10:40:09.756Z,16.58
2022-10-06T10:42:43.311Z,16.69
2022-10-06T10:45:19.100Z,16.40
2022-10-06T10:47:48.998Z,16.67
2022-10-06T10:50:33.529Z,16.76
2022-10-06T10:53:25.147Z,16.73
2022-10-06T10:55:53.163Z,16.74
2022-10-06T10:58:33.482Z,16.49
2022-10-06T11:01:12.672Z,16.39
2022-10-06T11:03:39.878Z,16.59
2022-10-06T11:06:35.681Z,16.49
2022-10-06T11:09:05.543Z,16.47
2022-10-06T11:12:01.919Z,16.63
2022-10-06T11:14:51.800Z,16.62
2022-10-06T11:17:26.116Z,16.38
2022-10-06T11:20:29.333Z,16.49
2022-10-06T11:23:15.081Z,16.94
2022-10-06T11:25:52.196Z,16.91
2022-10-06T11:28:40.064Z,17.21
2022-10-06T11:31:23.201Z,17.16
2022-10-06T11:33:55.285Z,17.47
2022-10-06T11:36:36.338Z,17.49
2022-10-06T11:39:25.990Z,17.09
2022-10-06T11:42:01.600Z,17.12
2022-10-06T11:44:38.926Z,16.77
2022-10-06T11:47:10.616Z,16.90
2022-10-06T11:49:46.396Z,16.98
2022-10-06T11:52:16.403Z,16.88
2022-10-06T11:54:43.357Z,17.05
2022-10-06T11:57:26.285Z,17.15
2022-10-06T12:00:16.480Z,17.15
2022-10-06T12:02:45.827Z,17.28
2022-10-06T12:08:02.824Z,17.16
2022-10-06T12:10:29.743Z,17.12
2022-10-06T12:19:30.502Z,17.34
2022-10-06T12:22:12.286Z,17.32
2022-10-06T12:24:51.179Z,17.32
2022-10-06T12:27:25.772Z,17.28
2022-10-06T12:30:02.029Z,17.33
2022-10-06T12:32:48.586Z,17.19
2022-10-06T12:35:35.490Z,17.25
2022-10-06T12:38:06.505Z,17.22
2022-10-06T12:40:39.307Z,17.09
2022-10-06T12:43:12.738Z,17.06
2022-10-06T12:46:18.145Z,16.80
2022-10-06T12:48:52.708Z,16.93
2022-10-06T12:51:37.522Z,17.17
2022-10-06T12:54:16.530Z,17.26
2022-10-06T12:56:54.117Z,16.99
2022-10-06T12:59:23.797Z,17.20
2022-10-06T13:01:54.693Z,17.13
2022-10-06T13:04:43.646Z,17.17
2022-10-06T13:07:25.362Z,17.16
2022-10-06T13:09:55.053Z,17.05
2022-10-06T13:12:31.439Z,17.20
2022-10-06T13:15:29.488Z,17.22
2022-10-06T13:17:58.276Z,17.34
2022-10-06T13:20:28.101Z,17.23
2022-10-06T13:22:57.684Z,17.20
2022-10-06T13:25:25.620Z,17.15
2022-10-06T13:27:52.725Z,17.16
2022-10-06T13:30:28.141Z,17.16
2022-10-06T13:32:56.458Z,17.21
2022-10-06T13:35:27.280Z,17.05
2022-10-06T13:37:55.146Z,17.11
2022-10-06T13:40:44.115Z,17.19
2022-10-06T13:43:18.425Z,17.15
2022-10-06T13:45:47.085Z,17.20
2022-10-06T13:48:18.935Z,17.21
2022-10-06T13:50:48.710Z,16.92
2022-10-06T13:53:29.526Z,17.07
2022-10-06T13:55:58.056Z,17.02
2022-10-06T13:58:26.935Z,17.05
2022-10-06T14:00:55.294Z,16.96
2022-10-06T14:03:32.656Z,16.87
2022-10-06T14:06:18.948Z,16.80
2022-10-06T14:08:57.684Z,16.59
2022-10-06T14:11:28.741Z,16.48
2022-10-06T14:14:00.985Z,16.40
2022-10-06T14:16:29.213Z,16.27
2022-10-06T14:18:57.293Z,16.26
2022-10-06T14:21:41.522Z,16.19
2022-10-06T14:24:17.284Z,16.18
2022-10-06T14:26:45.912Z,15.88
2022-10-06T14:29:13.305Z,15.73
2022-10-06T14:31:42.163Z,15.54
2022-10-06T14:34:11.706Z,15.30
2022-10-06T14:36:38.650Z,15.30
2022-10-06T14:39:07.007Z,15.19
2022-10-06T14:41:34.220Z,14.98
2022-10-06T14:44:04.065Z,14.90
2022-10-06T14:46:31.920Z,14.77
2022-10-06T14:48:59.525Z,14.64
2022-10-06T14:51:26.649Z,14.57
2022-10-06T14:53:55.687Z,14.44
2022-10-06T14:56:27.796Z,14.37
2022-10-06T14:58:55.344Z,14.20
2022-10-06T15:01:25.110Z,13.96
2022-10-06T15:04:00.607Z,13.71
2022-10-06T15:06:28.176Z,13.53
2022-10-06T15:08:57.371Z,13.41
2022-10-06T15:11:27.321Z,13.30
2022-10-06T15:13:55.983Z,13.29
2022-10-06T15:16:23.579Z,13.27
2022-10-06T15:18:51.552Z,13.21
2022-10-06T15:21:19.359Z,13.04
2022-10-06T15:23:46.931Z,12.93
2022-10-06T15:26:13.893Z,12.73
2022-10-06T15:28:40.901Z,12.67
2022-10-06T15:31:07.933Z,12.56
2022-10-06T15:33:34.930Z,12.46
2022-10-06T15:36:29.187Z,12.38
2022-10-06T15:38:56.775Z,12.28
2022-10-06T15:41:24.807Z,12.23
2022-10-06T15:43:53.723Z,12.21
2022-10-06T15:46:42.929Z,12.17
2022-10-06T15:49:15.555Z,12.08
2022-10-06T15:51:45.002Z,12.01
2022-10-06T15:54:12.797Z,11.90
2022-10-06T15:56:40.251Z,11.82
2022-10-06T15:59:07.729Z,11.79
2022-10-06T16:01:37.423Z,11.76
2022-10-06T16:04:06.823Z,11.65
2022-10-06T16:06:33.936Z,11.53
2022-10-06T16:09:00.919Z,11.45
2022-10-06T16:11:27.877Z,11.41
2022-10-06T16:13:56.153Z,11.36
2022-10-06T16:16:23.654Z,11.34
2022-10-06T16:18:50.795Z,11.32
2022-10-06T16:21:17.777Z,11.30
2022-10-06T16:23:44.781Z,11.28
2022-10-06T16:26:11.780Z,11.24
2022-10-06T16:28:38.800Z,11.23
2022-10-06T16:31:05.834Z,11.16
2022-10-06T16:33:32.838Z,11.08
2022-10-06T16:35:59.789Z,10.98
2022-10-06T16:38:26.759Z,10.95
2022-10-06T16:41:00.797Z,10.91
2022-10-06T16:43:38.692Z,10.89
2022-10-06T16:46:08.974Z,10.85
2022-10-06T16:48:38.560Z,10.80
2022-10-06T16:51:14.499Z,10.71
2022-10-06T16:53:42.673Z,10.61
2022-10-06T16:56:13.398Z,10.52
2022-10-06T16:58:46.073Z,10.38
2022-10-06T17:01:15.196Z,10.28
2022-10-06T17:03:42.646Z,10.17
2022-10-06T17:06:17.759Z,10.12
2022-10-06T17:08:45.034Z,9.96
2022-10-06T17:11:15.201Z,9.96
2022-10-06T17:13:46.369Z,9.94
2022-10-06T17:16:19.029Z,9.90
2022-10-06T17:18:54.443Z,9.84
2022-10-06T17:21:44.141Z,9.73
2022-10-06T17:24:09.559Z,9.70
2022-10-06T17:26:42.726Z,9.68
2022-10-06T17:29:18.260Z,9.59
2022-10-06T17:31:46.146Z,9.51
2022-10-06T17:34:20.018Z,9.42
2022-10-06T17:36:49.974Z,9.36
2022-10-06T17:39:20.083Z,9.29
2022-10-06T17:41:48.709Z,9.22
2022-10-06T17:44:17.505Z,9.15
2022-10-06T17:46:45.327Z,9.07
2022-10-06T17:49:14.865Z,9.03
2022-10-06T17:51:44.432Z,8.98
2022-10-06T17:54:12.959Z,8.93
2022-10-06T17:56:40.075Z,8.90
2022-10-06T17:59:11.461Z,8.82
2022-10-06T18:01:38.506Z,8.83
2022-10-06T18:04:06.476Z,8.83
2022-10-06T18:06:35.547Z,8.82
2022-10-06T18:09:03.897Z,8.76
2022-10-06T18:11:30.907Z,8.69
2022-10-06T18:13:58.828Z,8.62
2022-10-06T18:16:28.305Z,8.58
2022-10-06T18:18:56.192Z,8.55
2022-10-06T18:21:25.098Z,8.44
2022-10-06T18:23:52.360Z,8.44
2022-10-06T18:26:20.272Z,8.38
2022-10-06T18:28:49.381Z,8.33
2022-10-06T18:31:18.170Z,8.32
2022-10-06T18:36:34.076Z,8.25
2022-10-06T18:39:01.071Z,8.21
2022-10-06T18:41:28.499Z,8.13
2022-10-06T18:43:55.605Z,8.06
2022-10-06T18:46:23.122Z,8.00
2022-10-06T18:48:50.201Z,7.89
2022-10-06T18:51:17.226Z,7.88
2022-10-06T18:53:44.331Z,7.85
2022-10-06T18:56:11.276Z,7.81
2022-10-06T18:58:40.036Z,7.74
2022-10-06T19:01:07.574Z,7.71
2022-10-06T19:03:34.661Z,7.66
2022-10-06T19:06:01.853Z,7.61
2022-10-06T19:08:28.986Z,7.61
2022-10-06T19:10:56.042Z,7.53
2022-10-06T19:13:23.068Z,7.49
2022-10-06T19:15:50.758Z,7.40
2022-10-06T19:18:17.772Z,7.42
2022-10-06T19:20:50.646Z,7.41
2022-10-06T19:23:17.699Z,7.37
2022-10-06T19:25:44.727Z,7.33
2022-10-06T19:28:11.770Z,7.27
2022-10-06T19:30:38.853Z,7.26
2022-10-06T19:33:05.981Z,7.18
2022-10-06T19:35:33.002Z,7.13
2022-10-06T19:37:59.960Z,7.10
2022-10-06T19:40:26.922Z,7.08
2022-10-06T19:42:53.908Z,7.05
2022-10-06T19:45:20.965Z,6.98
2022-10-06T19:47:48.094Z,6.92
2022-10-06T19:50:16.363Z,6.87
2022-10-06T19:52:43.321Z,6.84
2022-10-06T19:55:10.348Z,6.80
2022-10-06T19:57:37.427Z,6.79
2022-10-06T20:00:06.451Z,6.73
2022-10-06T20:02:42.833Z,6.71
2022-10-06T20:05:15.377Z,6.68
2022-10-06T20:07:43.385Z,6.62
2022-10-06T20:10:12.219Z,6.58
2022-10-06T20:12:40.012Z,6.56
2022-10-06T20:15:07.727Z,6.52
2022-10-06T20:17:34.668Z,6.43
2022-10-06T20:20:01.686Z,6.39
2022-10-06T20:22:28.665Z,6.36
2022-10-06T20:24:55.646Z,6.27
2022-10-06T20:27:22.611Z,6.28
2022-10-06T20:29:49.561Z,6.24
2022-10-06T20:32:16.580Z,6.20
2022-10-06T20:34:43.625Z,6.14
2022-10-06T20:37:10.600Z,6.14
2022-10-06T20:39:37.555Z,6.11
2022-10-06T20:42:09.298Z,6.09
2022-10-06T20:44:39.427Z,6.04
2022-10-06T20:47:06.446Z,5.97
2022-10-06T20:49:33.486Z,5.99
2022-10-06T20:52:00.431Z,5.95
2022-10-06T20:54:27.862Z,5.91
2022-10-06T20:56:55.944Z,5.88
2022-10-06T20:59:24.008Z,5.86
2022-10-06T21:01:51.551Z,5.85
2022-10-06T21:04:20.143Z,5.81
2022-10-06T21:06:47.724Z,5.79
2022-10-06T21:09:16.994Z,5.75
2022-10-06T21:11:44.438Z,5.71
2022-10-06T21:14:12.612Z,5.62
2022-10-06T21:16:44.489Z,5.65
2022-10-06T21:19:12.800Z,5.64
2022-10-06T21:21:40.892Z,5.53
2022-10-06T21:24:08.435Z,5.53
2022-10-06T21:26:37.835Z,5.46
2022-10-06T21:29:05.246Z,5.50
2022-10-06T21:31:32.298Z,5.41
2022-10-06T21:33:59.351Z,5.44
2022-10-06T21:36:27.930Z,5.39
2022-10-06T21:38:57.097Z,5.34
2022-10-06T21:41:26.299Z,5.32
2022-10-06T21:43:54.520Z,5.27
2022-10-06T21:46:28.635Z,5.23
2022-10-06T21:48:58.113Z,5.14
2022-10-06T21:51:27.002Z,5.16
2022-10-06T21:53:54.906Z,5.14
2022-10-06T21:56:21.869Z,5.12
2022-10-06T21:58:50.602Z,5.11
2022-10-06T22:01:19.423Z,5.09
2022-10-06T22:03:47.357Z,5.04
2022-10-06T22:06:19.254Z,4.97
2022-10-06T22:08:47.223Z,4.95
2022-10-06T22:11:19.686Z,4.98
2022-10-06T22:13:50.443Z,4.95
2022-10-06T22:16:20.580Z,4.94
2022-10-06T22:18:48.434Z,4.87
2022-10-06T22:21:16.946Z,4.83
2022-10-06T22:23:46.086Z,4.82
2022-10-06T22:26:14.995Z,4.78
2022-10-06T22:28:47.054Z,4.74
2022-10-06T22:31:15.418Z,4.70
2022-10-06T22:33:43.609Z,4.66
2022-10-06T22:36:13.167Z,4.64
2022-10-06T22:38:40.592Z,4.62
2022-10-06T22:41:10.027Z,4.53
2022-10-06T22:43:37.502Z,4.55
2022-10-06T22:46:07.652Z,4.60
2022-10-06T22:48:34.928Z,4.59
2022-10-06T22:51:02.615Z,4.59
2022-10-06T22:53:30.181Z,4.54
2022-10-06T22:55:59.895Z,4.49
2022-10-06T22:58:27.501Z,4.42
2022-10-06T23:00:54.719Z,4.38
2022-10-06T23:03:21.826Z,4.37
2022-10-06T23:05:57.210Z,4.30
2022-10-06T23:08:24.913Z,4.26
2022-10-06T23:10:51.856Z,4.24
2022-10-06T23:13:19.398Z,4.19
2022-10-06T23:15:46.566Z,4.20
2022-10-06T23:18:13.935Z,4.15
2022-10-06T23:20:40.910Z,4.12
2022-10-06T23:23:07.847Z,4.11
2022-10-06T23:25:38.364Z,4.12
2022-10-06T23:28:05.436Z,4.05
2022-10-06T23:30:34.692Z,4.03
2022-10-06T23:33:02.246Z,4.03
2022-10-06T23:35:29.299Z,4.00
2022-10-06T23:37:56.267Z,3.97
2022-10-06T23:40:23.284Z,3.94
2022-10-06T23:42:50.245Z,3.92
2022-10-06T23:45:17.261Z,3.88
2022-10-06T23:47:44.411Z,3.85
2022-10-06T23:50:11.526Z,3.77
2022-10-06T23:52:38.499Z,3.78
2022-10-06T23:55:05.742Z,3.73
2022-10-06T23:57:32.707Z,3.72
2022-10-06T23:59:59.686Z,3.66
